Terminal Aerodrome Forecast
Issued by NWS Upton, NY

Current Version | Previous Version | Text Only | Print | Product List | Glossary On
Versions: 1 2 3 4 5 6 7 8 9 10 11 12 13 14 15 16 17 18 19 20 21 22 23 24 25 26
000
FTUS41 KOKX 300200 AAA
TAFEWR
TAF AMD
KEWR 300241Z 3003/3106 VRB05KT P6SM SCT250
     FM301300 17007KT P6SM SCT030 BKN150
     FM301900 18011KT P6SM SCT040 BKN120
     FM310100 19006KT P6SM BKN040 BKN120=

USA.gov is the U.S. government's official web portal to all federal, state and local government web resources and services.